TimeEST,TemperatureF,Dew PointF,Humidity,Sea Level PressureIn,VisibilityMPH,Wind Direction,Wind SpeedMPH,Gust SpeedMPH,PrecipitationIn,Events,Conditions,WindDirDegrees,DateUTC
12:53 AM,60.1,46.9,62,30.12,10.0,North,11.5,-,N/A,,Mostly Cloudy,350,2012-11-09 05:53:00
1:53 AM,60.1,51.1,72,30.11,10.0,North,13.8,-,N/A,,Mostly Cloudy,350,2012-11-09 06:53:00
2:53 AM,59.0,51.1,75,30.11,10.0,North,11.5,-,N/A,,Clear,350,2012-11-09 07:53:00
3:53 AM,59.0,51.1,75,30.11,10.0,North,10.4,-,N/A,,Partly Cloudy,360,2012-11-09 08:53:00
4:53 AM,59.0,51.1,75,30.12,10.0,North,12.7,-,N/A,,Clear,360,2012-11-09 09:53:00
5:53 AM,57.0,51.1,81,30.13,10.0,North,6.9,-,N/A,,Clear,360,2012-11-09 10:53:00
6:53 AM,57.0,51.1,81,30.15,10.0,North,8.1,-,N/A,,Clear,360,2012-11-09 11:53:00
7:53 AM,62.1,53.1,72,30.17,10.0,North,9.2,-,N/A,,Clear,10,2012-11-09 12:53:00
8:53 AM,66.9,55.0,66,30.19,10.0,NNE,9.2,-,N/A,,Partly Cloudy,20,2012-11-09 13:53:00
9:53 AM,72.0,55.9,57,30.20,10.0,NNE,11.5,-,N/A,,Clear,20,2012-11-09 14:53:00
10:53 AM,75.0,51.1,43,30.19,10.0,NE,15.0,-,N/A,,Clear,40,2012-11-09 15:53:00
11:53 AM,77.0,48.9,37,30.18,10.0,NE,13.8,-,N/A,,Partly Cloudy,50,2012-11-09 16:53:00
12:53 PM,77.0,48.9,37,30.16,10.0,NE,11.5,20.7,N/A,,Partly Cloudy,40,2012-11-09 17:53:00
1:53 PM,75.0,51.1,43,30.14,10.0,ENE,16.1,24.2,N/A,,Mostly Cloudy,60,2012-11-09 18:53:00
2:53 PM,75.9,48.9,38,30.14,10.0,ENE,15.0,23.0,N/A,,Scattered Clouds,60,2012-11-09 19:53:00
3:53 PM,73.9,51.1,45,30.13,10.0,ENE,18.4,27.6,N/A,,Scattered Clouds,60,2012-11-09 20:53:00
4:53 PM,72.0,48.0,43,30.14,10.0,NE,16.1,-,N/A,,Clear,50,2012-11-09 21:53:00
5:53 PM,70.0,50.0,49,30.15,10.0,ENE,11.5,20.7,N/A,,Scattered Clouds,70,2012-11-09 22:53:00
6:53 PM,68.0,51.1,55,30.16,10.0,East,6.9,-,N/A,,Mostly Cloudy,80,2012-11-09 23:53:00
7:53 PM,70.0,51.1,51,30.17,10.0,East,8.1,-,N/A,,Mostly Cloudy,80,2012-11-10 00:53:00
8:53 PM,70.0,51.1,51,30.19,10.0,ENE,8.1,-,N/A,,Overcast,70,2012-11-10 01:53:00
9:53 PM,69.1,51.1,53,30.20,10.0,ENE,9.2,-,N/A,,Mostly Cloudy,70,2012-11-10 02:53:00
10:53 PM,68.0,51.1,55,30.19,10.0,East,10.4,-,N/A,,Partly Cloudy,80,2012-11-10 03:53:00
11:53 PM,66.0,51.1,59,30.19,10.0,NE,4.6,-,N/A,,Mostly Cloudy,50,2012-11-10 04:53:00